Time;durP1;ratioP1;P1;durP2;ratioP2;P2;SDS_P1;SDS_P2;PMS_P1;PMS_P2;Temp;Humidity;BMP_temperature;BMP_pressure;BME280_temperature;BME280_humidity;BME280_pressure;Samples;Min_cycle;Max_cycle;Signal;HPM_P1;HPM_P2
2022/04/07 00:00:40;;;;;;;6.63;3.92;;;;;;;;;;5052826;28;20391;-81
2022/04/07 00:03:06;;;;;;;7.25;3.80;;;9.90;99.90;;;;;;5052288;28;20049;-77
2022/04/07 00:05:31;;;;;;;8.05;3.70;;;9.90;99.90;;;;;;5052299;28;20086;-76
2022/04/07 00:07:58;;;;;;;10.95;3.33;;;;;;;;;;5052258;28;20021;-77
2022/04/07 00:10:23;;;;;;;7.15;2.47;;;9.90;99.90;;;;;;5052162;28;20044;-76
2022/04/07 00:12:49;;;;;;;6.05;2.28;;;;;;;;;;5052527;28;20025;-76
2022/04/07 00:15:15;;;;;;;8.48;2.85;;;;;;;;;;5052496;28;20022;-77
2022/04/07 00:17:41;;;;;;;6.05;2.95;;;;;;;;;;5052423;28;20029;-74
2022/04/07 00:20:07;;;;;;;7.85;3.08;;;10.00;99.90;;;;;;5062580;28;20085;-77
2022/04/07 00:22:34;;;;;;;7.75;2.83;;;9.90;99.90;;;;;;5072508;28;20036;-76
2022/04/07 00:25:00;;;;;;;8.30;2.60;;;9.90;99.90;;;;;;5072037;28;20158;-77
2022/04/07 00:27:26;;;;;;;6.63;2.22;;;;;;;;;;5071901;28;20107;-76
2022/04/07 00:29:52;;;;;;;7.03;2.78;;;;;;;;;;5053937;28;20032;-77
2022/04/07 00:32:18;;;;;;;7.40;2.65;;;;;;;;;;5071838;28;20017;-76
2022/04/07 00:34:46;;;;;;;8.48;2.30;;;10.10;99.90;;;;;;5071889;28;20028;-77
2022/04/07 00:37:13;;;;;;;8.10;2.30;;;10.00;99.90;;;;;;5072189;28;20440;-76
2022/04/07 00:39:39;;;;;;;10.13;2.75;;;10.10;99.90;;;;;;5053983;28;20387;-77
2022/04/07 00:42:05;;;;;;;9.77;2.25;;;10.00;99.90;;;;;;5053962;28;20028;-77
2022/04/07 00:44:30;;;;;;;10.93;2.05;;;10.10;99.90;;;;;;5071895;28;20025;-77
2022/04/07 00:46:56;;;;;;;11.40;2.75;;;;;;;;;;5071752;28;20527;-77
2022/04/07 00:49:22;;;;;;;8.23;2.13;;;;;;;;;;5071774;28;20044;-77
2022/04/07 00:51:49;;;;;;;10.35;2.30;;;10.00;99.90;;;;;;5071693;28;20024;-77
2022/04/07 00:54:16;;;;;;;11.13;2.90;;;;;;;;;;5071856;28;20020;-77
2022/04/07 00:56:43;;;;;;;8.20;2.17;;;10.00;99.90;;;;;;5071667;28;20033;-76
2022/04/07 00:59:16;;;;;;;7.32;2.95;;;10.10;99.90;;;;;;5071810;28;20151;-77
2022/04/07 01:01:41;;;;;;;8.35;2.33;;;10.10;99.90;;;;;;5074927;28;20040;-77
2022/04/07 01:04:07;;;;;;;8.32;2.33;;;10.10;99.90;;;;;;5075502;28;20114;-77
2022/04/07 01:06:33;;;;;;;9.18;2.10;;;10.10;99.90;;;;;;5075427;28;20052;-77
2022/04/07 01:09:00;;;;;;;11.85;2.33;;;10.20;99.90;;;;;;5075482;28;20044;-77
2022/04/07 01:11:28;;;;;;;8.68;2.72;;;10.20;99.90;;;;;;5075635;28;20047;-77
2022/04/07 01:13:54;;;;;;;6.68;2.33;;;10.10;99.90;;;;;;5075294;28;20482;-77
2022/04/07 01:16:26;;;;;;;9.65;2.55;;;10.00;99.90;;;;;;5075497;28;20020;-76
2022/04/07 01:18:52;;;;;;;11.82;2.90;;;9.90;99.90;;;;;;5075657;28;20020;-77
2022/04/07 01:21:19;;;;;;;9.98;4.00;;;9.70;99.90;;;;;;5075361;28;20074;-77
2022/04/07 01:24:02;;;;;;;9.23;3.20;;;9.50;99.90;;;;;;5075505;28;20032;-77
2022/04/07 01:26:30;;;;;;;;;;;9.50;99.90;;;;;;5075553;28;20050;-77
2022/04/07 01:28:55;;;;;;;14.85;4.18;;;9.50;99.90;;;;;;5075230;28;19950;-76
2022/04/07 01:31:21;;;;;;;12.80;4.35;;;9.50;99.90;;;;;;5074730;28;20442;-77
2022/04/07 01:33:47;;;;;;;16.75;3.50;;;9.50;99.90;;;;;;5075149;28;20044;-77
2022/04/07 01:36:16;;;;;;;11.05;2.75;;;;;;;;;;5074801;28;20028;-75
2022/04/07 01:38:42;;;;;;;8.07;2.97;;;;;;;;;;5074760;28;20016;-77
2022/04/07 01:41:08;;;;;;;12.63;2.67;;;;;;;;;;5074619;28;20063;-77
2022/04/07 01:43:35;;;;;;;12.35;3.42;;;9.40;99.90;;;;;;5074430;28;20024;-76
2022/04/07 01:46:01;;;;;;;11.88;3.55;;;9.40;99.90;;;;;;5075934;28;20550;-76
2022/04/07 01:48:28;;;;;;;10.93;3.90;;;9.30;99.90;;;;;;5074401;28;20082;-77
2022/04/07 01:50:55;;;;;;;11.45;3.72;;;9.20;99.90;;;;;;5074149;28;20016;-76
2022/04/07 01:53:21;;;;;;;13.63;4.22;;;9.20;99.90;;;;;;5074390;28;20024;-77
2022/04/07 01:55:48;;;;;;;14.05;4.32;;;;;;;;;;5074170;28;20047;-76
2022/04/07 01:58:16;;;;;;;17.92;5.38;;;;;;;;;;5074440;28;20035;-76
2022/04/07 02:00:41;;;;;;;12.43;5.68;;;9.10;99.90;;;;;;5074289;28;20027;-77
2022/04/07 02:03:09;;;;;;;19.42;5.55;;;9.10;99.90;;;;;;5073886;28;20436;-77
2022/04/07 02:05:35;;;;;;;17.80;5.43;;;9.10;99.90;;;;;;5074108;28;20025;-77
2022/04/07 02:08:01;;;;;;;14.25;4.95;;;;;;;;;;5074028;28;20115;-77
2022/04/07 02:10:28;;;;;;;22.90;6.07;;;;;;;;;;5074079;28;20042;-77
2022/04/07 02:12:54;;;;;;;14.18;4.70;;;;;;;;;;5072876;28;20016;-77
2022/04/07 02:15:20;;;;;;;16.95;5.32;;;;;;;;;;5073791;28;20028;-77
2022/04/07 02:17:47;;;;;;;17.45;4.47;;;;;;;;;;5073997;28;20348;-77
2022/04/07 02:20:13;;;;;;;21.42;4.85;;;;;;;;;;5073832;28;20130;-77
2022/04/07 02:22:39;;;;;;;14.65;4.25;;;;;;;;;;5073721;28;20020;-77
2022/04/07 02:25:07;;;;;;;16.63;3.83;;;;;;;;;;5073678;28;20032;-76
2022/04/07 02:27:36;;;;;;;12.80;3.15;;;;;;;;;;5073672;28;20463;-77
2022/04/07 02:30:02;;;;;;;10.68;2.70;;;;;;;;;;5073489;28;20390;-77
2022/04/07 02:32:28;;;;;;;15.18;3.50;;;;;;;;;;5073851;28;20024;-76
2022/04/07 02:34:54;;;;;;;9.98;2.90;;;;;;;;;;5073596;28;20104;-76
2022/04/07 02:37:20;;;;;;;12.18;3.70;;;;;;;;;;5073327;28;20457;-77
2022/04/07 02:39:46;;;;;;;11.40;3.10;;;;;;;;;;5073370;28;20358;-77
2022/04/07 02:42:12;;;;;;;9.48;2.80;;;;;;;;;;5073013;28;20481;-76
2022/04/07 02:44:38;;;;;;;8.18;2.70;;;;;;;;;;5073092;28;20025;-77
2022/04/07 02:47:04;;;;;;;12.98;2.97;;;;;;;;;;5073264;28;20025;-76
2022/04/07 02:49:30;;;;;;;13.98;3.50;;;;;;;;;;5073213;28;20031;-77
2022/04/07 02:51:56;;;;;;;13.15;4.25;;;;;;;;;;5073180;28;20024;-77
2022/04/07 02:54:22;;;;;;;11.27;4.20;;;;;;;;;;5073222;28;20032;-76
2022/04/07 02:56:48;;;;;;;12.90;4.38;;;9.40;99.90;;;;;;5073115;28;20478;-77
2022/04/07 02:59:14;;;;;;;15.18;6.38;;;;;;;;;;5072976;28;20029;-77
2022/04/07 03:01:40;;;;;;;10.85;3.72;;;9.40;99.90;;;;;;5073096;28;20111;-77
2022/04/07 03:04:06;;;;;;;15.98;4.20;;;;;;;;;;5072748;28;20075;-77
2022/04/07 03:06:31;;;;;;;14.38;3.88;;;9.50;99.90;;;;;;5073073;28;20481;-77
2022/04/07 03:08:57;;;;;;;12.50;3.33;;;9.50;99.90;;;;;;5073284;28;20039;-77
2022/04/07 03:11:22;;;;;;;17.85;3.80;;;9.50;99.90;;;;;;5073363;28;20020;-77
2022/04/07 03:13:48;;;;;;;18.20;3.47;;;;;;;;;;5064978;28;20021;-77
2022/04/07 03:16:14;;;;;;;21.88;4.13;;;;;;;;;;5052982;28;20021;-77
2022/04/07 03:18:40;;;;;;;14.07;3.70;;;9.60;99.90;;;;;;5052906;28;20025;-76
2022/04/07 03:21:06;;;;;;;12.73;3.40;;;;;;;;;;5071169;28;20360;-76
2022/04/07 03:23:32;;;;;;;20.40;2.88;;;;;;;;;;5072557;28;20041;-76
2022/04/07 03:26:00;;;;;;;18.60;3.97;;;9.70;99.90;;;;;;5072359;28;20047;-77
2022/04/07 03:28:26;;;;;;;10.18;2.92;;;9.70;99.90;;;;;;5072425;28;20052;-77
2022/04/07 03:30:52;;;;;;;15.95;3.03;;;;;;;;;;5072261;28;20439;-76
2022/04/07 03:33:19;;;;;;;23.80;4.18;;;;;;;;;;5072294;28;20020;-77
2022/04/07 03:35:45;;;;;;;19.60;3.50;;;9.70;99.90;;;;;;5072139;28;20020;-77
2022/04/07 03:38:10;;;;;;;13.15;2.58;;;9.70;99.90;;;;;;5072483;28;20672;-76
2022/04/07 03:40:36;;;;;;;23.80;3.33;;;9.70;99.90;;;;;;5071626;28;20079;-77
2022/04/07 03:43:02;;;;;;;24.00;4.30;;;9.70;99.90;;;;;;5052193;28;20025;-77
2022/04/07 03:45:29;;;;;;;12.35;2.47;;;;;;;;;;5052195;28;20025;-77
2022/04/07 03:47:55;;;;;;;18.02;3.55;;;;;;;;;;5051992;28;20051;-77
2022/04/07 03:50:21;;;;;;;15.80;2.83;;;;;;;;;;5052040;28;20020;-77
2022/04/07 03:52:47;;;;;;;9.88;2.30;;;;;;;;;;5051958;28;20024;-75
2022/04/07 03:55:13;;;;;;;17.63;2.90;;;;;;;;;;5051884;28;20032;-77
2022/04/07 03:57:39;;;;;;;11.38;2.80;;;;;;;;;;5051896;28;20387;-77
2022/04/07 04:00:06;;;;;;;21.90;5.13;;;;;;;;;;5051882;28;20379;-76
2022/04/07 04:02:32;;;;;;;13.20;2.83;;;;;;;;;;5051689;28;20072;-76
2022/04/07 04:04:58;;;;;;;16.67;4.03;;;;;;;;;;5051705;28;20091;-77
2022/04/07 04:07:24;;;;;;;16.95;4.00;;;;;;;;;;5050287;28;20075;-77
2022/04/07 04:09:50;;;;;;;15.25;3.80;;;;;;;;;;5051696;28;20017;-77
2022/04/07 04:12:16;;;;;;;20.17;4.20;;;;;;;;;;5051543;28;20433;-77
2022/04/07 04:14:42;;;;;;;18.40;4.50;;;;;;;;;;5067141;28;20025;-76
2022/04/07 04:17:08;;;;;;;19.48;3.20;;;9.40;99.90;;;;;;5071811;28;20040;-77
2022/04/07 04:19:34;;;;;;;13.85;3.30;;;9.40;99.90;;;;;;5071636;28;20082;-77
2022/04/07 04:21:59;;;;;;;16.83;3.33;;;9.40;99.90;;;;;;5071897;28;20020;-77
2022/04/07 04:24:26;;;;;;;19.25;3.72;;;;;;;;;;5072014;28;20410;-77
2022/04/07 04:26:52;;;;;;;18.25;2.95;;;;;;;;;;5071446;28;20343;-77
2022/04/07 04:29:18;;;;;;;19.45;3.72;;;;;;;;;;5053831;28;20451;-77
2022/04/07 04:31:44;;;;;;;16.67;3.72;;;;;;;;;;5071762;28;20380;-77
2022/04/07 04:34:10;;;;;;;17.50;2.38;;;;;;;;;;5071576;28;20029;-76
2022/04/07 04:36:36;;;;;;;9.25;2.22;;;;;;;;;;5074909;28;20095;-76
2022/04/07 04:39:03;;;;;;;10.05;1.80;;;;;;;;;;5075557;28;20025;-76
2022/04/07 04:41:29;;;;;;;13.27;2.10;;;;;;;;;;5067759;28;20044;-77
2022/04/07 04:43:55;;;;;;;10.75;2.20;;;;;;;;;;5055695;28;20066;-77
2022/04/07 04:46:21;;;;;;;14.15;2.58;;;;;;;;;;5055577;28;20035;-76
2022/04/07 04:48:47;;;;;;;12.00;2.30;;;;;;;;;;5055633;28;20029;-77
2022/04/07 04:51:13;;;;;;;13.98;2.25;;;;;;;;;;5037415;28;20025;-77
2022/04/07 04:53:39;;;;;;;9.80;2.17;;;;;;;;;;5055541;28;20032;-77
2022/04/07 04:56:06;;;;;;;13.13;2.40;;;;;;;;;;5055247;28;20029;-77
2022/04/07 04:58:32;;;;;;;11.07;2.50;;;;;;;;;;5055584;28;20030;-77
2022/04/07 05:00:58;;;;;;;10.90;2.13;;;;;;;;;;5055484;28;20467;-77
2022/04/07 05:03:24;;;;;;;12.20;2.40;;;;;;;;;;5055410;28;20060;-77
2022/04/07 05:05:50;;;;;;;9.80;1.63;;;;;;;;;;5055137;28;20033;-75
2022/04/07 05:08:18;;;;;;;11.00;2.42;;;;;;;;;;5055192;28;20044;-76
2022/04/07 05:10:44;;;;;;;12.90;1.98;;;;;;;;;;5055221;28;20079;-77
2022/04/07 05:13:10;;;;;;;10.65;2.40;;;9.80;99.90;;;;;;5057973;28;20024;-77
2022/04/07 05:15:37;;;;;;;8.25;2.50;;;;;;;;;;5057052;28;20458;-77
2022/04/07 05:18:04;;;;;;;9.68;2.50;;;;;;;;;;5075067;28;20419;-77
2022/04/07 05:20:30;;;;;;;11.25;2.25;;;;;;;;;;5075117;28;20151;-77
2022/04/07 05:22:56;;;;;;;12.32;2.42;;;;;;;;;;5074831;28;20363;-77
2022/04/07 05:25:22;;;;;;;8.40;2.63;;;;;;;;;;5074772;28;20028;-77
2022/04/07 05:27:48;;;;;;;10.05;2.03;;;;;;;;;;5074943;28;20017;-76
2022/04/07 05:30:15;;;;;;;6.90;2.25;;;;;;;;;;5074724;28;20062;-76
2022/04/07 05:32:42;;;;;;;10.30;2.30;;;;;;;;;;5074877;28;20462;-76
2022/04/07 05:35:09;;;;;;;7.10;2.20;;;;;;;;;;5074686;28;20033;-77
2022/04/07 05:37:35;;;;;;;9.40;3.70;;;;;;;;;;5074819;28;20467;-76
2022/04/07 05:40:01;;;;;;;8.50;2.22;;;;;;;;;;5074843;28;20060;-77
2022/04/07 05:42:27;;;;;;;7.28;2.45;;;;;;;;;;5058765;28;20418;-76
2022/04/07 05:44:53;;;;;;;12.77;2.97;;;;;;;;;;5036552;28;20020;-76
2022/04/07 05:47:19;;;;;;;10.52;3.10;;;;;;;;;;5053165;28;20368;-76
2022/04/07 05:49:46;;;;;;;8.90;2.63;;;;;;;;;;5036464;28;20383;-77
2022/04/07 05:52:12;;;;;;;8.15;2.65;;;;;;;;;;5054232;28;20091;-76
2022/04/07 05:54:38;;;;;;;9.48;2.95;;;;;;;;;;5054240;28;20379;-76
2022/04/07 05:57:03;;;;;;;12.35;2.35;;;9.20;99.90;;;;;;5054156;28;20059;-77
2022/04/07 05:59:29;;;;;;;7.90;2.90;;;;;;;;;;5054375;28;20117;-76
2022/04/07 06:01:55;;;;;;;12.23;3.97;;;;;;;;;;5053967;28;20422;-76
2022/04/07 06:04:21;;;;;;;8.55;3.28;;;;;;;;;;5053784;28;20056;-76
2022/04/07 06:06:48;;;;;;;11.20;2.90;;;;;;;;;;5053986;28;20079;-77
2022/04/07 06:09:14;;;;;;;7.07;2.75;;;;;;;;;;5053870;28;20032;-77
2022/04/07 06:11:40;;;;;;;7.43;2.80;;;;;;;;;;5036033;28;20585;-76
2022/04/07 06:14:06;;;;;;;7.25;2.10;;;;;;;;;;5064220;28;20020;-77
2022/04/07 06:16:32;;;;;;;5.85;2.40;;;;;;;;;;5073866;28;20055;-76
2022/04/07 06:18:58;;;;;;;8.27;2.25;;;;;;;;;;5073781;28;20024;-75
2022/04/07 06:21:24;;;;;;;6.97;2.60;;;;;;;;;;5073650;28;20039;-76
2022/04/07 06:23:50;;;;;;;6.55;2.75;;;;;;;;;;5073995;28;20032;-77
2022/04/07 06:26:18;;;;;;;5.47;1.70;;;;;;;;;;5073350;28;20477;-75
2022/04/07 06:28:44;;;;;;;3.13;0.70;;;;;;;;;;5073779;28;20032;-77
2022/04/07 06:31:10;;;;;;;2.88;0.63;;;;;;;;;;5073584;28;20059;-76
2022/04/07 06:33:36;;;;;;;7.10;0.75;;;;;;;;;;5074044;28;20086;-76
2022/04/07 06:36:03;;;;;;;3.40;0.55;;;;;;;;;;5074721;28;20033;-75
2022/04/07 06:38:30;;;;;;;4.18;0.60;;;;;;;;;;5074187;28;20070;-74
2022/04/07 06:40:57;;;;;;;7.70;0.93;;;;;;;;;;5074026;28;20035;-76
2022/04/07 06:43:23;;;;;;;3.92;0.65;;;;;;;;;;5056121;28;20755;-76
2022/04/07 06:45:49;;;;;;;6.65;1.73;;;;;;;;;;5055824;28;20039;-76
2022/04/07 06:48:15;;;;;;;10.45;1.92;;;;;;;;;;5073971;28;20069;-77
2022/04/07 06:50:41;;;;;;;7.03;1.00;;;;;;;;;;5073593;28;20258;-77
2022/04/07 06:53:07;;;;;;;7.07;0.73;;;;;;;;;;5074051;28;20025;-78
2022/04/07 06:55:33;;;;;;;9.63;0.98;;;;;;;;;;5073682;28;20021;-77
2022/04/07 06:58:00;;;;;;;5.35;0.98;;;;;;;;;;5073424;28;20025;-76
2022/04/07 07:00:30;;;;;;;5.00;0.88;;;;;;;;;;5073959;28;20059;-77
2022/04/07 07:02:57;;;;;;;4.30;1.10;;;;;;;;;;5073353;28;20473;-77
2022/04/07 07:05:24;;;;;;;9.02;1.25;;;;;;;;;;5073414;28;20392;-77
2022/04/07 07:07:51;;;;;;;5.90;0.98;;;;;;;;;;5055378;28;20024;-77
2022/04/07 07:10:20;;;;;;;5.32;1.23;;;;;;;;;;5073272;28;20020;-77
2022/04/07 07:12:47;;;;;;;8.20;1.33;;;;;;;;;;5055129;28;20021;-77
2022/04/07 07:15:13;;;;;;;8.25;1.25;;;;;;;;;;5053606;28;20101;-77
2022/04/07 07:17:40;;;;;;;7.93;1.00;;;;;;;;;;5053420;28;20040;-76
2022/04/07 07:20:07;;;;;;;7.00;1.15;;;;;;;;;;5063298;28;20020;-76
2022/04/07 07:22:33;;;;;;;7.25;1.48;;;;;;;;;;5073311;28;20099;-77
2022/04/07 07:24:59;;;;;;;9.18;1.23;;;;;;;;;;5073447;28;20055;-77
2022/04/07 07:27:25;;;;;;;5.38;1.00;;;;;;;;;;5072740;28;20043;-77
2022/04/07 07:29:52;;;;;;;7.00;1.30;;;;;;;;;;5072733;28;20039;-77
2022/04/07 07:32:18;;;;;;;11.05;1.77;;;;;;;;;;5072823;28;20497;-76
2022/04/07 07:34:44;;;;;;;9.60;1.52;;;;;;;;;;5072630;28;20115;-77
2022/04/07 07:37:10;;;;;;;4.05;0.68;;;;;;;;;;5072798;28;20021;-77
2022/04/07 07:39:36;;;;;;;7.63;1.30;;;;;;;;;;5072595;28;20480;-77
2022/04/07 07:42:03;;;;;;;6.93;2.42;;;;;;;;;;5060115;28;20087;-77
2022/04/07 07:44:29;;;;;;;7.38;1.13;;;;;;;;;;5052552;28;20028;-76
2022/04/07 07:46:55;;;;;;;4.60;1.05;;;;;;;;;;5052420;28;20040;-77
2022/04/07 07:49:21;;;;;;;9.60;1.60;;;;;;;;;;5052818;28;20021;-77
2022/04/07 07:51:50;;;;;;;6.95;1.45;;;;;;;;;;5052460;28;20017;-76
2022/04/07 07:54:16;;;;;;;9.82;1.70;;;;;;;;;;5052282;28;20021;-77
2022/04/07 07:56:42;;;;;;;10.63;1.55;;;;;;;;;;5052321;28;20024;-77
2022/04/07 07:59:08;;;;;;;11.05;1.17;;;;;;;;;;5052212;28;20051;-77
2022/04/07 08:01:34;;;;;;;5.25;1.20;;;;;;;;;;5052459;28;20532;-77
2022/04/07 08:04:00;;;;;;;5.15;1.20;;;;;;;;;;5052090;28;20386;-77
2022/04/07 08:06:27;;;;;;;4.55;1.20;;;;;;;;;;5052030;28;20040;-76
2022/04/07 08:08:53;;;;;;;9.43;3.20;;;;;;;;;;5051957;28;20410;-77
2022/04/07 08:11:19;;;;;;;5.25;1.10;;;;;;;;;;5049828;28;20029;-77
2022/04/07 08:13:45;;;;;;;10.25;1.75;;;;;;;;;;5059580;28;20087;-77
2022/04/07 08:16:11;;;;;;;7.30;1.08;;;;;;;;;;5072174;28;20446;-77
2022/04/07 08:18:37;;;;;;;3.22;0.80;;;;;;;;;;5072030;28;20025;-77
2022/04/07 08:21:03;;;;;;;6.25;0.93;;;;;;;;;;5071972;28;20032;-77
2022/04/07 08:23:29;;;;;;;5.38;0.73;;;;;;;;;;5072243;28;20033;-78
2022/04/07 08:25:55;;;;;;;8.25;1.08;;;;;;;;;;5071563;28;20106;-77
2022/04/07 08:28:22;;;;;;;6.63;0.93;;;;;;;;;;5071876;28;20032;-77
2022/04/07 08:30:48;;;;;;;5.00;0.95;;;;;;;;;;5071669;28;20009;-77
2022/04/07 08:33:14;;;;;;;6.07;0.90;;;;;;;;;;5071680;28;20047;-77
2022/04/07 08:35:40;;;;;;;4.32;0.85;;;;;;;;;;5071605;28;20025;-77
2022/04/07 08:38:06;;;;;;;4.97;0.88;;;;;;;;;;5071390;28;20047;-77
2022/04/07 08:40:36;;;;;;;3.50;0.90;;;;;;;;;;5073453;28;20407;-77
2022/04/07 08:43:02;;;;;;;4.15;0.70;;;;;;;;;;5051334;28;20033;-77
2022/04/07 08:45:29;;;;;;;7.80;0.95;;;;;;;;;;5051521;28;20083;-77
2022/04/07 08:47:57;;;;;;;4.35;1.25;;;;;;;;;;5051519;28;20082;-77
2022/04/07 08:50:23;;;;;;;3.00;0.47;;;;;;;;;;5051535;28;20139;-77
2022/04/07 08:52:49;;;;;;;6.80;1.25;;;;;;;;;;5051447;28;20055;-77
2022/04/07 08:55:15;;;;;;;3.85;0.80;;;;;;;;;;5051561;28;20024;-77
2022/04/07 08:57:42;;;;;;;4.78;0.93;;;;;;;;;;5051479;28;20080;-77
2022/04/07 09:00:08;;;;;;;7.07;0.73;;;;;;;;;;5051650;28;20029;-77
2022/04/07 09:02:35;;;;;;;3.45;1.15;;;;;;;;;;5051446;28;20025;-77
2022/04/07 09:05:01;;;;;;;7.00;0.77;;;;;;;;;;5051366;28;20456;-76
2022/04/07 09:07:34;;;;;;;7.80;0.88;;;;;;;;;;5051242;28;20032;-78
2022/04/07 09:10:01;;;;;;;4.05;0.75;;;;;;;;;;5051536;28;20017;-77
2022/04/07 09:12:27;;;;;;;5.75;0.77;;;;;;;;;;5051249;28;20017;-77
2022/04/07 09:14:59;;;;;;;4.80;0.70;;;;;;;;;;5068150;28;20039;-77
2022/04/07 09:17:26;;;;;;;2.88;0.60;;;;;;;;;;5071469;28;20440;-77
2022/04/07 09:19:53;;;;;;;5.90;0.90;;;;;;;;;;5071361;28;20029;-77
2022/04/07 09:22:28;;;;;;;5.90;1.20;;;;;;;;;;5073974;28;20108;-77
2022/04/07 09:24:54;;;;;;;3.75;0.88;;;;;;;;;;5075427;28;20037;-77
2022/04/07 09:27:20;;;;;;;2.95;0.55;;;;;;;;;;5075163;28;20089;-77
2022/04/07 09:29:46;;;;;;;4.22;0.85;;;;;;;;;;5075203;28;20377;-76
2022/04/07 09:32:20;;;;;;;4.45;0.95;;;;;;;;;;5074892;28;20053;-77
2022/04/07 09:34:51;;;;;;;6.95;0.90;;;;;;;;;;5074759;28;20043;-76
2022/04/07 09:37:20;;;;;;;5.18;0.77;;;;;;;;;;5057010;28;20463;-77
2022/04/07 09:39:46;;;;;;;5.85;0.80;;;;;;;;;;5056670;28;20060;-77
2022/04/07 09:42:25;;;;;;;6.57;1.27;;;;;;;;;;5074649;28;20025;-77
2022/04/07 09:44:57;;;;;;;7.47;1.02;;;;;;;;;;5074804;28;20032;-77
2022/04/07 09:47:23;;;;;;;5.65;1.33;;;;;;;;;;5074418;28;20055;-77
2022/04/07 09:49:52;;;;;;;7.32;1.52;;;;;;;;;;5056441;28;20454;-77
2022/04/07 09:52:20;;;;;;;5.53;1.48;;;;;;;;;;5074243;28;20020;-76
2022/04/07 09:54:48;;;;;;;4.05;0.80;;;;;;;;;;5074504;28;20071;-77
2022/04/07 09:57:15;;;;;;;6.07;1.00;;;;;;;;;;5074547;28;20032;-77
2022/04/07 09:59:41;;;;;;;8.73;1.10;;;;;;;;;;5074133;28;20028;-77
2022/04/07 10:02:07;;;;;;;7.45;1.40;;;;;;;;;;5074333;28;20075;-77
2022/04/07 10:04:37;;;;;;;5.50;0.90;;;;;;;;;;5073820;28;20046;-77
2022/04/07 10:07:05;;;;;;;8.85;0.98;;;;;;;;;;5074214;28;20090;-77
2022/04/07 10:09:31;;;;;;;12.40;1.58;;;;;;;;;;5056027;28;20036;-77
2022/04/07 10:12:01;;;;;;;12.05;1.30;;;;;;;;;;5074042;28;20023;-77
2022/04/07 10:14:29;;;;;;;6.40;1.20;;;;;;;;;;5055802;28;20024;-75
2022/04/07 10:16:56;;;;;;;8.07;1.35;;;;;;;;;;5055986;28;20163;-77
2022/04/07 10:19:31;;;;;;;11.20;1.85;;;;;;;;;;5074010;28;20032;-77
2022/04/07 10:22:12;;;;;;;5.68;1.10;;;;;;;;;;5073905;28;20021;-76
2022/04/07 10:24:41;;;;;;;4.13;0.80;;;;;;;;;;5074142;28;20025;-77
2022/04/07 10:27:09;;;;;;;6.38;1.25;;;;;;;;;;5073782;28;20048;-77
2022/04/07 10:29:37;;;;;;;9.05;1.20;;;;;;;;;;5055738;28;20153;-77
2022/04/07 10:32:09;;;;;;;12.15;1.33;;;;;;;;;;5073601;28;20024;-76
2022/04/07 10:34:35;;;;;;;7.57;1.65;;;;;;;;;;5073491;28;20109;-76
2022/04/07 10:37:03;;;;;;;9.05;1.10;;;;;;;;;;5073478;28;20075;-76
2022/04/07 10:39:32;;;;;;;7.10;1.27;;;;;;;;;;5073587;28;20024;-78
2022/04/07 10:41:58;;;;;;;5.93;0.88;;;;;;;;;;5061672;28;20025;-77
2022/04/07 10:44:26;;;;;;;5.63;1.13;;;;;;;;;;5052144;28;20021;-77
2022/04/07 10:47:02;;;;;;;10.95;1.58;;;;;;;;;;5053371;28;20060;-77
2022/04/07 10:49:30;;;;;;;11.38;1.70;;;;;;;;;;5053431;28;20447;-77
2022/04/07 10:51:57;;;;;;;10.52;0.98;;;;;;;;;;5053100;28;20029;-75
2022/04/07 10:54:24;;;;;;;11.02;1.63;;;;;;;;;;5053183;28;20032;-76
2022/04/07 10:56:51;;;;;;;7.03;1.30;;;;;;;;;;5052933;28;20021;-77
2022/04/07 10:59:18;;;;;;;13.73;2.10;;;;;;;;;;5052960;28;20486;-76
2022/04/07 11:01:47;;;;;;;7.90;1.45;;;;;;;;;;5053081;28;20033;-77
2022/04/07 11:04:19;;;;;;;7.90;1.42;;;;;;;;;;5052859;28;20041;-76
2022/04/07 11:07:04;;;;;;;3.33;1.45;;;;;;;;;;5051452;28;20053;-76
2022/04/07 11:09:49;;;;;;;15.02;2.17;;;;;;;;;;5052665;28;20468;-76
2022/04/07 11:12:28;;;;;;;12.60;2.05;;;;;;;;;;5052847;28;20425;-76
2022/04/07 11:15:14;;;;;;;10.00;1.40;;;;;;;;;;5052685;28;20013;-77
2022/04/07 11:17:46;;;;;;;6.78;1.35;;;;;;;;;;5051291;28;20033;-76
2022/04/07 11:20:15;;;;;;;14.65;1.35;;;;;;;;;;5063531;28;20039;-76
2022/04/07 11:22:45;;;;;;;7.45;1.25;;;;;;;;;;5072739;28;20028;-77
2022/04/07 11:25:12;;;;;;;13.55;2.25;;;;;;;;;;5072476;28;20473;-76
2022/04/07 11:27:42;;;;;;;7.38;1.60;;;;;;;;;;5072250;28;20768;-75
2022/04/07 11:30:09;;;;;;;13.15;1.90;;;;;;;;;;5072553;28;20020;-77
2022/04/07 11:32:36;;;;;;;8.95;1.40;;;;;;;;;;5072609;28;20021;-77
2022/04/07 11:35:13;;;;;;;12.30;1.67;;;;;;;;;;5072214;28;20016;-76
2022/04/07 11:37:40;;;;;;;15.32;1.77;;;;;;;;;;5072473;28;20036;-74
2022/04/07 11:40:06;;;;;;;7.25;1.55;;;;;;;;;;5072312;28;20013;-75
2022/04/07 11:42:32;;;;;;;22.05;3.38;;;;;;;;;;5055813;28;20029;-77
2022/04/07 11:44:59;;;;;;;10.48;1.70;;;;;;;;;;5052214;28;20032;-76
2022/04/07 11:47:30;;;;;;;13.98;1.50;;;;;;;;;;5052014;28;20032;-77
2022/04/07 11:49:57;;;;;;;12.40;1.67;;;;;;;;;;5050762;28;20397;-77
2022/04/07 11:52:27;;;;;;;12.68;1.90;;;;;;;;;;5052240;28;20131;-77
2022/04/07 11:54:54;;;;;;;15.40;2.08;;;;;;;;;;5051858;28;20024;-77
2022/04/07 11:57:21;;;;;;;13.60;2.22;;;;;;;;;;5052113;28;20044;-75
2022/04/07 11:59:47;;;;;;;8.85;1.65;;;;;;;;;;5051894;28;20075;-76
2022/04/07 12:02:19;;;;;;;14.52;1.67;;;;;;;;;;5052095;28;20429;-76
2022/04/07 12:04:45;;;;;;;12.13;2.00;;;;;;;;;;5051706;28;20098;-76
2022/04/07 12:07:11;;;;;;;15.73;1.70;;;;;;;;;;5051821;28;20033;-76
2022/04/07 12:09:37;;;;;;;17.40;2.97;;;;;;;;;;5051853;28;20017;-76
2022/04/07 12:12:03;;;;;;;10.43;1.58;;;;;;;;;;5050659;28;20120;-75
2022/04/07 12:14:29;;;;;;;10.80;1.50;;;;;;;;;;5065343;28;20025;-76
2022/04/07 12:16:55;;;;;;;9.00;1.92;;;;;;;;;;5053799;28;20395;-77
2022/04/07 12:19:21;;;;;;;7.63;1.42;;;;;;;;;;5071441;28;20094;-76
2022/04/07 12:21:59;;;;;;;10.27;1.50;;;;;;;;;;5071547;28;20020;-76
2022/04/07 12:24:28;;;;;;;7.63;2.22;;;;;;;;;;5072242;28;20024;-75
2022/04/07 12:26:55;;;;;;;5.82;1.08;;;;;;;;;;5071299;28;20391;-76
2022/04/07 12:29:23;;;;;;;9.55;1.95;;;;;;;;;;5071711;28;20453;-76
2022/04/07 12:32:01;;;;;;;16.67;2.75;;;;;;;;;;5071653;28;20067;-75
2022/04/07 12:34:27;;;;;;;10.50;1.45;;;;;;;;;;5053643;28;20383;-75
2022/04/07 12:36:53;;;;;;;15.75;2.38;;;;;;;;;;5071651;28;20028;-75
2022/04/07 12:39:22;;;;;;;9.27;1.63;;;;;;;;;;5071605;28;20025;-76
2022/04/07 12:41:54;;;;;;;14.32;2.00;;;;;;;;;;5071458;28;20032;-76
2022/04/07 12:44:22;;;;;;;15.73;2.08;;;;;;;;;;5071623;28;20415;-76
2022/04/07 12:46:48;;;;;;;9.23;1.40;;;;;;;;;;5071444;28;20028;-76
2022/04/07 12:49:15;;;;;;;10.90;2.00;;;;;;;;;;5071428;28;20029;-77
2022/04/07 12:51:41;;;;;;;11.90;1.60;;;;;;;;;;5071386;28;20044;-76
2022/04/07 12:54:12;;;;;;;12.40;2.00;;;;;;;;;;5071540;28;20033;-80
2022/04/07 12:56:39;;;;;;;7.93;2.03;;;;;;;;;;5073006;28;20382;-77
2022/04/07 12:59:08;;;;;;;11.13;1.70;;;;;;;;;;5075496;28;20359;-76
2022/04/07 13:01:34;;;;;;;14.23;1.95;;;;;;;;;;5075395;28;20044;-76
2022/04/07 13:04:00;;;;;;;9.57;2.22;;;;;;;;;;5075076;28;20052;-76
2022/04/07 13:06:27;;;;;;;11.75;1.77;;;;;;;;;;5075079;28;20051;-75
2022/04/07 13:08:54;;;;;;;9.55;1.83;;;;;;;;;;5075113;28;20032;-76
2022/04/07 13:11:33;;;;;;;11.32;2.08;;;;;;;;;;5075248;28;20492;-76
2022/04/07 13:14:00;;;;;;;9.93;1.13;;;;;;;;;;5075109;28;20331;-79
2022/04/07 13:16:26;;;;;;;7.55;1.35;;;;;;;;;;5075146;28;20043;-75
2022/04/07 13:18:52;;;;;;;12.27;1.85;;;;;;;;;;5075046;28;20040;-75
2022/04/07 13:21:18;;;;;;;13.45;1.90;;;;;;;;;;5074914;28;20112;-76
2022/04/07 13:23:44;;;;;;;12.50;1.67;;;;;;;;;;5074971;28;20052;-74
2022/04/07 13:26:10;;;;;;;8.70;1.45;;;;;;;;;;5074563;28;20025;-75
2022/04/07 13:28:36;;;;;;;6.30;1.38;;;;;;;;;;5074800;28;20079;-75
2022/04/07 13:31:03;;;;;;;13.40;2.00;;;;;;;;;;5074724;28;20017;-76
2022/04/07 13:33:29;;;;;;;9.15;1.80;;;;;;;;;;5074644;28;20370;-77
2022/04/07 13:35:56;;;;;;;10.48;1.55;;;;;;;;;;5074525;28;20033;-76
2022/04/07 13:38:22;;;;;;;8.10;1.20;;;;;;;;;;5074755;28;20028;-76
2022/04/07 13:40:49;;;;;;;8.30;1.55;;;;;;;;;;5074501;28;20021;-76
2022/04/07 13:43:16;;;;;;;16.40;2.70;;;;;;;;;;5074496;28;20025;-76
2022/04/07 13:45:46;;;;;;;13.43;2.38;;;;;;;;;;5074342;28;20052;-75
2022/04/07 13:48:12;;;;;;;16.40;3.05;;;;;;;;;;5074522;28;20054;-76
2022/04/07 13:50:39;;;;;;;9.77;2.40;;;;;;;;;;5074217;28;20106;-76
2022/04/07 13:53:05;;;;;;;8.55;1.85;;;;;;;;;;5056390;28;20021;-76
2022/04/07 13:55:32;;;;;;;9.15;1.45;;;;;;;;;;5074336;28;20036;-76
2022/04/07 13:57:58;;;;;;;10.68;1.85;;;;;;;;;;5074128;28;20012;-74
2022/04/07 14:00:24;;;;;;;6.43;1.23;;;;;;;;;;5074310;28;20133;-75
2022/04/07 14:02:51;;;;;;;6.95;1.42;;;;;;;;;;5056142;28;20514;-75
2022/04/07 14:05:17;;;;;;;8.85;1.40;;;;;;;;;;5074061;28;20051;-77
2022/04/07 14:07:43;;;;;;;19.13;2.22;;;;;;;;;;5072854;28;20032;-76
2022/04/07 14:10:10;;;;;;;12.60;1.85;;;;;;;;;;5073972;28;20497;-76
2022/04/07 14:12:36;;;;;;;8.13;1.13;;;;;;;;;;5055817;28;20029;-76
2022/04/07 14:15:03;;;;;;;18.65;1.73;;;;;;;;;;5073940;28;20038;-75
2022/04/07 14:17:29;;;;;;;13.43;2.00;;;;;;;;;;5074058;28;20036;-76